Main page
METAR-TAF:

METAR-TAF

Airports :

Morava Airport

Kraljevo, Serbia

latitude: 43-49-07N, longitude: 020-35-07E, elevation: 209 m

Current weather observation

The report was made 38 minutes ago, at 06:30 UTC
Wind 1 kt from variable directions
Temperature 24°C
Humidity 74%
Pressure 1013 hPa
Visibility 10 km or more
no clouds below 1500 m and no cumulonimbus

METAR: LYKV 300630Z VRB01KT CAVOK 24/19 Q1013 NOSIG

Time: 09:08 (07:08 UTC)

Forecast

The report was made 2 hours and 8 minutes ago, at 05:00 UTC
Forecast valid from 30 at 06 UTC to 31 at 06 UTC
Wind 6 kt from the East/Northeast
Visibility 10 km or more
no clouds below 1500 m and no cumulonimbus

TAF: LYKV 300500Z 3006/3106 06006KT CAVOK TX37/3013Z TN19/3103Z

Weather observations and forecasts of more than 4000 airports (METAR and TAF reports).

The available stations are represented by yellow and red dots on the map.

Hover mouse over dot to see the name of the station.

Then click to see weather observations and forecasts.

To change the map : click on the green buttons with a black cross to zoom in, on the green button with a dash to zoom out, or on the green arrows for adjacent maps.


METAR-TAF: